Decoded Metar for KTXK (TEXARKANA in AR, USA) (IATA:TXK) | Meteo·Mobile Aviation Weather
aviador You're here:

KTXK Decoded Metar

TEXARKANA in AR, USA
Report Time2019-05-20 23:53:00
UTC Time2019-05-21 00:33:14
Flight Rules vfr VFR
Wind150° at 11 Gusting to 19 kt
W.Decomp.*RWY 13: 10.6 kt HW 2.8 kt RCW
RWY 22: 2.8 kt HW 10.6 kt LCW
Visibility9999 m
Phenomena:N/A
Clouds:N/A
Expected CloudBase > 2,000 ft AGL from Temp-Dew spread
CeilingNone
Temp28°C (ISA +14)
Dew Point23°C (74% RH)
Heat Index31.2°C
QNH1007 hPa
Density Alt2,516 ft
Elevation364 ft
Report Wrong Elevation
Raw Report
KTXK 202353Z 15011G19KT 10SM CLR 28/23 A2973 RMK AO2 SLP062
T02830228 10294 20261 58035=

Extra information for KTXK:More info

Metar Taf Metar & Taf Last 4 Metars F.Rules Stats Wind Profile Meteogram Temp Stats Airport Information Weather charts Add Link Nearby VenuesMetar ALERT Operation Metar Decoded Social comments

AIRNAV info for KTXK